createdAt,value
2016-10-26T16:22:32.522Z,1017.05
2016-10-26T16:23:41.362Z,1017.09
2016-10-26T16:24:50.162Z,1017.08
2016-10-26T16:25:59.053Z,1017.1
2016-10-26T16:27:08.023Z,1017.08
2016-10-26T16:28:16.843Z,1017.13
2016-10-26T16:29:25.686Z,1017.12
2016-10-26T16:30:34.557Z,1017.09
2016-10-26T16:31:43.418Z,1017.11
2016-10-26T16:44:11.249Z,1017.02
2016-10-26T16:45:37.740Z,1017.01
2016-10-26T16:46:48.642Z,1016.97
2016-10-26T16:47:58.660Z,1016.91
2016-10-26T16:49:08.769Z,1016.97
2016-10-26T16:50:18.208Z,1017.01
2016-10-26T16:51:27.793Z,1016.96
2016-10-26T16:52:37.414Z,1017.01
2016-10-26T16:53:47.262Z,1017
2016-10-26T16:54:57.107Z,1017.03
2016-10-26T16:56:07.067Z,1017.07
2016-10-26T16:57:16.968Z,1017.12
2016-10-26T16:58:26.739Z,1017.08
2016-10-26T16:59:36.511Z,1017.12
2016-10-26T17:00:46.806Z,1017.17
2016-10-26T17:01:56.597Z,1017.23
2016-10-26T17:03:06.957Z,1017.26
2016-10-26T17:04:16.479Z,1017.25
2016-10-26T17:05:26.189Z,1017.26
2016-10-26T17:06:36.494Z,1017.31
2016-10-26T17:07:46.517Z,1017.29
2016-10-26T17:08:56.333Z,1017.3
2016-10-26T17:10:06.030Z,1017.3
2016-10-26T17:11:15.694Z,1017.29
2016-10-26T17:12:25.616Z,1017.26
2016-10-26T17:13:35.504Z,1017.29
2016-10-26T17:14:45.144Z,1017.24
2016-10-26T17:15:54.723Z,1017.26
2016-10-26T17:17:04.274Z,1017.24
2016-10-26T17:18:14.230Z,1017.27
2016-10-26T17:19:23.834Z,1017.27
2016-10-26T17:20:33.394Z,1017.34
2016-10-26T17:21:43.646Z,1017.32
2016-10-26T17:22:53.269Z,1017.37
2016-10-26T17:24:03.304Z,1017.45
2016-10-26T17:25:12.961Z,1017.4
2016-10-26T17:26:22.823Z,1017.43
2016-10-26T17:27:32.941Z,1017.42
2016-10-26T17:28:42.456Z,1017.47
2016-10-26T17:29:52.196Z,1017.46
2016-10-26T17:31:04.050Z,1017.51
2016-10-26T17:32:13.949Z,1017.53
2016-10-26T17:33:23.540Z,1017.5
2016-10-26T17:34:33.168Z,1017.6
2016-10-26T17:35:43.122Z,1017.63
2016-10-26T17:36:52.736Z,1017.64
2016-10-26T17:38:02.642Z,1017.61
2016-10-26T17:39:12.423Z,1017.61
2016-10-26T17:40:22.332Z,1017.64
2016-10-26T17:41:32.152Z,1017.63
2016-10-26T17:42:42.172Z,1017.64
2016-10-26T17:43:51.752Z,1017.63
2016-10-26T17:45:01.660Z,1017.63
2016-10-26T17:46:11.285Z,1017.54
2016-10-26T17:47:21.189Z,1017.53
2016-10-26T17:48:31.309Z,1017.58
2016-10-26T17:49:40.842Z,1017.51
2016-10-26T17:50:50.693Z,1017.53
2016-10-26T17:52:00.329Z,1017.48
2016-10-26T17:53:10.170Z,1017.5
2016-10-26T17:54:19.755Z,1017.54
2016-10-26T17:55:29.836Z,1017.57
2016-10-26T17:56:39.459Z,1017.58
2016-10-26T17:57:49.348Z,1017.59
2016-10-26T17:58:59.974Z,1017.58
2016-10-26T18:00:09.922Z,1017.59
2016-10-26T18:01:19.428Z,1017.61
2016-10-26T18:02:29.061Z,1017.61
2016-10-26T18:03:38.792Z,1017.64
2016-10-26T18:04:49.080Z,1017.62
2016-10-26T18:05:58.956Z,1017.63
2016-10-26T18:07:08.573Z,1017.58
2016-10-26T18:08:18.108Z,1017.62
2016-10-26T18:09:27.816Z,1017.6
2016-10-26T18:10:37.980Z,1017.63
2016-10-26T18:11:49.470Z,1017.6
2016-10-26T18:13:00.449Z,1017.63
2016-10-26T18:14:10.009Z,1017.6
2016-10-26T18:15:19.939Z,1017.66
2016-10-26T18:16:29.897Z,1017.65
2016-10-26T18:17:39.478Z,1017.59
2016-10-26T18:18:48.969Z,1017.62
2016-10-26T18:19:59.374Z,1017.58
2016-10-26T18:21:08.995Z,1017.55
2016-10-26T18:22:19.140Z,1017.57
2016-10-26T18:23:28.616Z,1017.58
2016-10-26T18:24:38.301Z,1017.61
2016-10-26T18:25:47.754Z,1017.56
2016-10-26T18:26:57.338Z,1017.6
2016-10-26T18:28:07.797Z,1017.64
2016-10-26T18:29:17.281Z,1017.64
2016-10-26T18:30:26.796Z,1017.62
2016-10-26T18:31:36.340Z,1017.62
2016-10-26T18:32:46.235Z,1017.54
2016-10-26T18:33:56.273Z,1017.57
2016-10-26T18:35:05.929Z,1017.56
2016-10-26T18:36:15.877Z,1017.61
2016-10-26T18:37:25.578Z,1017.62
2016-10-26T18:38:35.409Z,1017.63
2016-10-26T18:39:45.291Z,1017.7
2016-10-26T18:40:55.641Z,1017.66
2016-10-26T18:42:05.213Z,1017.65
2016-10-26T18:43:14.713Z,1017.68
2016-10-26T18:44:24.666Z,1017.68
2016-10-26T18:45:34.527Z,1017.63
2016-10-26T18:46:44.593Z,1017.66
2016-10-26T18:47:54.839Z,1017.63
2016-10-26T18:49:04.739Z,1017.62
2016-10-26T18:50:14.274Z,1017.6
2016-10-26T18:51:24.200Z,1017.59
2016-10-26T18:52:33.666Z,1017.64
2016-10-26T18:53:43.552Z,1017.62
2016-10-26T18:54:53.432Z,1017.68
2016-10-26T18:56:02.990Z,1017.68
2016-10-26T18:58:37.433Z,1017.71
2016-10-26T18:59:47.033Z,1017.67
2016-10-26T19:00:56.903Z,1017.69
2016-10-26T19:02:06.503Z,1017.71
2016-10-26T19:03:16.494Z,1017.74
2016-10-26T19:04:26.129Z,1017.78
2016-10-26T19:05:35.787Z,1017.79
2016-10-26T19:06:45.474Z,1017.8
2016-10-26T19:07:55.147Z,1017.83
2016-10-26T19:09:05.124Z,1017.83
2016-10-26T19:10:14.910Z,1017.89
2016-10-26T19:11:24.725Z,1017.89
2016-10-26T19:12:34.348Z,1017.84
2016-10-26T19:13:44.162Z,1017.86
2016-10-26T19:14:54.208Z,1017.88
2016-10-26T19:16:05.079Z,1017.85
2016-10-26T19:17:14.653Z,1017.83
2016-10-26T19:18:24.101Z,1017.84
2016-10-26T19:19:33.641Z,1017.86
2016-10-26T19:20:43.518Z,1017.87
2016-10-26T19:21:54.290Z,1017.9
2016-10-26T19:23:03.884Z,1017.89
2016-10-26T19:24:13.704Z,1017.91
2016-10-26T19:25:23.398Z,1017.91
2016-10-26T19:26:33.260Z,1017.98
2016-10-26T19:27:42.990Z,1017.96
2016-10-26T19:28:52.506Z,1017.96
2016-10-26T19:30:02.457Z,1018.02
2016-10-26T19:31:12.197Z,1018.06
2016-10-26T19:32:22.196Z,1018.02
2016-10-26T19:33:32.223Z,1018.1
2016-10-26T19:34:41.898Z,1018.06
2016-10-26T19:35:51.689Z,1018.09
2016-10-26T19:37:02.881Z,1018.09
2016-10-26T19:38:13.028Z,1018.08
2016-10-26T19:39:23.152Z,1018.04
2016-10-26T19:40:32.699Z,1018.02
2016-10-26T19:41:42.196Z,1017.97
2016-10-26T19:42:51.669Z,1017.98
2016-10-26T19:44:01.467Z,1017.95
2016-10-26T19:45:11.679Z,1017.91
2016-10-26T19:46:21.388Z,1017.93
2016-10-26T19:47:30.921Z,1017.93
2016-10-26T19:48:40.613Z,1017.94
2016-10-26T19:49:50.417Z,1017.98
2016-10-26T19:50:59.847Z,1018.02
2016-10-26T19:52:09.463Z,1018.03
2016-10-26T19:53:19.054Z,1018.04
2016-10-26T19:54:28.509Z,1018.06
2016-10-26T19:55:38.366Z,1018.07
2016-10-26T19:56:48.225Z,1018.1
2016-10-26T19:57:57.845Z,1018.19
2016-10-26T19:59:07.789Z,1018.23
2016-10-26T20:00:17.437Z,1018.25
2016-10-26T20:01:27.372Z,1018.25
2016-10-26T20:02:37.058Z,1018.27
2016-10-26T20:03:46.795Z,1018.26
2016-10-26T20:04:56.530Z,1018.25
2016-10-26T20:06:06.254Z,1018.22
2016-10-26T20:07:16.117Z,1018.27
2016-10-26T20:08:25.620Z,1018.26
2016-10-26T20:09:35.283Z,1018.3
2016-10-26T20:10:45.067Z,1018.31
2016-10-26T20:11:55.394Z,1018.3
2016-10-26T20:13:05.294Z,1018.34
2016-10-26T20:14:14.954Z,1018.3
2016-10-26T20:15:24.585Z,1018.37
2016-10-26T20:16:34.408Z,1018.38
2016-10-26T20:17:44.008Z,1018.4
2016-10-26T20:18:53.986Z,1018.41
2016-10-26T20:20:03.969Z,1018.47
2016-10-26T20:21:13.752Z,1018.43
2016-10-26T20:22:23.963Z,1018.47
2016-10-26T20:23:33.512Z,1018.5
2016-10-26T20:24:43.228Z,1018.5
2016-10-26T20:25:52.935Z,1018.51
2016-10-26T20:27:02.433Z,1018.55
2016-10-26T20:28:12.412Z,1018.57
2016-10-26T20:29:22.361Z,1018.57
2016-10-26T20:30:32.197Z,1018.54
2016-10-26T20:31:42.013Z,1018.51
2016-10-26T20:32:51.734Z,1018.54
2016-10-26T20:34:01.381Z,1018.55
2016-10-26T20:35:10.837Z,1018.53
2016-10-26T20:36:20.976Z,1018.51
2016-10-26T20:37:30.802Z,1018.49
2016-10-26T20:38:40.488Z,1018.43
2016-10-26T20:39:50.021Z,1018.42
2016-10-26T20:40:59.830Z,1018.4
2016-10-26T20:42:09.714Z,1018.42
2016-10-26T20:43:19.238Z,1018.39
2016-10-26T20:44:30.344Z,1018.39
2016-10-26T20:45:39.860Z,1018.45
2016-10-26T20:46:49.521Z,1018.5
2016-10-26T20:47:59.541Z,1018.54
2016-10-26T20:49:09.572Z,1018.58
2016-10-26T20:50:19.202Z,1018.61
2016-10-26T20:51:28.799Z,1018.66
2016-10-26T20:52:38.610Z,1018.69
2016-10-26T20:53:48.577Z,1018.68
2016-10-26T20:54:58.552Z,1018.72
2016-10-26T20:56:08.539Z,1018.7
2016-10-26T20:57:18.607Z,1018.72
2016-10-26T20:58:28.208Z,1018.72
2016-10-26T20:59:38.356Z,1018.69
2016-10-26T21:00:47.900Z,1018.7
2016-10-26T21:01:57.816Z,1018.74
2016-10-26T21:03:07.245Z,1018.75
2016-10-26T21:04:16.781Z,1018.81
2016-10-26T21:05:26.897Z,1018.83
2016-10-26T21:06:36.822Z,1018.81
2016-10-26T21:07:46.768Z,1018.83
2016-10-26T21:08:56.726Z,1018.87
2016-10-26T21:10:06.195Z,1018.92
2016-10-26T21:11:16.015Z,1018.93
2016-10-26T21:12:25.843Z,1019.03
2016-10-26T21:13:35.330Z,1019.04
2016-10-26T21:14:44.767Z,1019.07
2016-10-26T21:15:54.672Z,1019.07
2016-10-26T21:17:04.544Z,1019.09
2016-10-26T21:18:14.159Z,1019.13
2016-10-26T21:19:23.717Z,1019.09
2016-10-26T21:20:33.186Z,1019.03
2016-10-26T21:21:42.664Z,1018.97
2016-10-26T21:22:52.716Z,1018.98
2016-10-26T21:24:02.259Z,1019
2016-10-26T21:25:12.254Z,1019
2016-10-26T21:26:21.939Z,1019.04
2016-10-26T21:27:31.698Z,1019.02
2016-10-26T21:28:41.774Z,1019.01
2016-10-26T21:29:51.430Z,1018.96
2016-10-26T21:31:01.440Z,1018.97
2016-10-26T21:32:11.182Z,1019.12
2016-10-26T21:33:20.884Z,1019.15
2016-10-26T21:34:30.710Z,1019.14
2016-10-26T21:35:40.659Z,1019.18
2016-10-26T21:43:03.654Z,1019.27
2016-10-26T21:44:13.506Z,1019.23
2016-10-26T21:45:23.392Z,1019.25
2016-10-26T21:46:33.246Z,1019.23
2016-10-26T21:47:43.530Z,1019.25
2016-10-26T21:48:52.988Z,1019.18
2016-10-26T21:50:03.191Z,1019.17
2016-10-26T21:51:12.970Z,1019.19
2016-10-26T21:52:22.744Z,1019.22
2016-10-26T21:53:32.221Z,1019.2
2016-10-26T21:54:41.787Z,1019.24
2016-10-26T21:55:51.728Z,1019.22
2016-10-26T21:57:01.549Z,1019.23
2016-10-26T21:58:11.567Z,1019.24
2016-10-26T21:59:21.500Z,1019.22
2016-10-26T22:00:31.072Z,1019.19
2016-10-26T22:01:41.316Z,1019.17
2016-10-26T22:02:50.828Z,1019.19
2016-10-26T22:04:00.966Z,1019.17
2016-10-26T22:05:10.460Z,1019.16
2016-10-26T22:06:20.677Z,1019.24
2016-10-26T22:07:30.366Z,1019.2
2016-10-26T22:08:39.822Z,1019.25
2016-10-26T22:09:49.337Z,1019.23
2016-10-26T22:10:59.292Z,1019.23
2016-10-26T22:12:08.746Z,1019.23
2016-10-26T22:13:18.573Z,1019.24
2016-10-26T22:14:28.016Z,1019.24
2016-10-26T22:15:37.602Z,1019.26
2016-10-26T22:16:47.564Z,1019.22
2016-10-26T22:17:57.056Z,1019.23
2016-10-26T22:19:06.815Z,1019.27
2016-10-26T22:20:16.607Z,1019.26
2016-10-26T22:21:26.631Z,1019.26
2016-10-26T22:22:36.473Z,1019.25
2016-10-26T22:23:46.513Z,1019.29
2016-10-26T22:24:56.715Z,1019.3
2016-10-26T22:26:06.561Z,1019.28
2016-10-26T22:27:31.375Z,1019.28
2016-10-26T22:28:41.157Z,1019.3
2016-10-26T22:29:50.712Z,1019.27
2016-10-26T22:31:00.428Z,1019.26
2016-10-26T22:32:10.029Z,1019.26
2016-10-26T22:33:19.510Z,1019.2
2016-10-26T22:34:29.069Z,1019.16
2016-10-26T22:35:39.382Z,1019.18
2016-10-26T22:36:49.069Z,1019.2
2016-10-26T22:37:58.627Z,1019.19
2016-10-26T22:39:08.184Z,1019.12
2016-10-26T22:40:18.005Z,1019.1
2016-10-26T22:41:27.535Z,1019.11
2016-10-26T22:42:37.486Z,1019.15
2016-10-26T22:43:47.030Z,1019.16
2016-10-26T22:44:56.534Z,1019.16
2016-10-26T22:46:06.504Z,1019.22
2016-10-26T22:47:17.155Z,1019.14
2016-10-26T22:48:27.490Z,1019.13
2016-10-26T22:49:37.903Z,1019.08
2016-10-26T22:50:47.611Z,1019.1
2016-10-26T22:51:57.215Z,1019.12
2016-10-26T22:53:06.834Z,1019.07
2016-10-26T22:54:17.084Z,1019.06
2016-10-26T22:55:26.564Z,1019.05
2016-10-26T22:56:36.813Z,1019.03
2016-10-26T22:57:46.530Z,1018.96
2016-10-26T22:58:56.279Z,1018.97
2016-10-26T23:00:06.338Z,1018.93
2016-10-26T23:01:16.508Z,1018.91
2016-10-26T23:02:26.438Z,1018.91
2016-10-26T23:03:36.692Z,1018.87
2016-10-26T23:04:46.288Z,1018.88
2016-10-26T23:05:56.187Z,1018.88
2016-10-26T23:07:06.908Z,1018.9
2016-10-26T23:08:16.584Z,1018.92
2016-10-26T23:09:26.545Z,1018.93
2016-10-26T23:10:36.251Z,1018.87
2016-10-26T23:11:46.366Z,1018.83
2016-10-26T23:12:56.211Z,1018.84
2016-10-26T23:14:05.915Z,1018.88
2016-10-26T23:15:30.393Z,1018.92
2016-10-26T23:16:40.006Z,1018.95
2016-10-26T23:17:49.763Z,1018.95
2016-10-26T23:18:59.510Z,1018.91
2016-10-26T23:20:09.446Z,1018.91
2016-10-26T23:21:19.024Z,1018.89
2016-10-26T23:22:28.904Z,1018.88
2016-10-26T23:23:38.631Z,1018.93
2016-10-26T23:24:48.733Z,1018.88
2016-10-26T23:25:58.244Z,1018.84
2016-10-26T23:27:07.783Z,1018.82
2016-10-26T23:28:17.338Z,1018.85
2016-10-26T23:29:27.128Z,1018.86
2016-10-26T23:30:36.631Z,1018.9
2016-10-26T23:31:46.435Z,1018.85
2016-10-26T23:32:55.907Z,1018.84
2016-10-26T23:34:05.510Z,1018.87
2016-10-26T23:35:15.818Z,1018.86
2016-10-26T23:36:25.824Z,1018.95
2016-10-26T23:37:35.616Z,1019.01
2016-10-26T23:38:45.131Z,1019.07
2016-10-26T23:39:55.140Z,1019.02
2016-10-26T23:41:04.942Z,1019.03
2016-10-26T23:42:14.923Z,1019.03
2016-10-26T23:45:03.617Z,1019.05
2016-10-26T23:46:13.697Z,1019.04
2016-10-26T23:47:23.822Z,1019.05
2016-10-26T23:48:33.353Z,1019
2016-10-26T23:49:43.051Z,1019.06
2016-10-26T23:50:53.909Z,1019.04
2016-10-26T23:52:04.064Z,1019.1
2016-10-26T23:53:14.262Z,1019.1
2016-10-26T23:54:24.063Z,1019.1
2016-10-26T23:55:33.646Z,1019.15
2016-10-26T23:56:43.574Z,1019.17
2016-10-26T23:57:53.822Z,1019.21
2016-10-26T23:59:03.765Z,1019.2
